Kruzenshtern — UCVK — position and weather

sailwx.info

Track history (hours):
 
Tides and Currents Weather Stations Pressure Air Temp Water Temp Dewpoint Dewpoint Depression Visibility Wind Speed Wind Dir Waves Ship Positions

Kruzenshtern (Russia)

ex-Padua.

Last reported at 2017-Apr-26 05:35 UTC. Time now 2017-Apr-26 15:39 UTC.
Position N 55°00' E 018°26'.

Length 114 m; draft 6 m.

Type: Sailing vessel. MMSI: 273243700.

Date/timePositionNaut miles runAvg speedWind from/ knotsBaromVisibWave heightAir tempDewpointWater temp
2017-Apr-26 05:35N 55°00' E 018°26'1 6.1
2017-Apr-26 05:21N 55°00' E 018°28'3 5.8
2017-Apr-26 04:54N 54°60' E 018°33'3 6.6
2017-Apr-26 04:30N 54°59' E 018°37'3 6.4
2017-Apr-26 04:00N 54°58' E 018°42'3 6.5
2017-Apr-26 03:30N 54°56' E 018°47'3 6.8
2017-Apr-26 03:00N 54°55' E 018°53'4 7.1
2017-Apr-26 02:30N 54°54' E 018°59'4 7.0
2017-Apr-26 02:00N 54°52' E 019°04'4 6.9
2017-Apr-26 01:29N 54°51' E 019°10'4 7.0
2017-Apr-26 00:59N 54°50' E 019°16'4 7.3
2017-Apr-26 00:25N 54°48' E 019°22'3 7.3
2017-Apr-25 23:59N 54°47' E 019°27'  
Track history (hours):
 
Tides and Currents Weather Stations Pressure Air Temp Water Temp Dewpoint Dewpoint Depression Visibility Wind Speed Wind Dir Waves Ship Positions

Kruzenshtern (Russia)

ex-Padua.

Last reported at 2017-Apr-26 05:35 UTC. Time now 2017-Apr-26 15:39 UTC.
Position N 55°00' E 018°26'.

Length 114 m; draft 6 m.

Type: Sailing vessel. MMSI: 273243700.

Date/timePositionNaut miles runAvg speedWind from/ knotsBaromVisibWave heightAir tempDewpointWater temp
2017-Apr-26 05:35N 55°00' E 018°26'1 6.1
2017-Apr-26 05:21N 55°00' E 018°28'3 5.8
2017-Apr-26 04:54N 54°60' E 018°33'3 6.6
2017-Apr-26 04:30N 54°59' E 018°37'3 6.4
2017-Apr-26 04:00N 54°58' E 018°42'3 6.5
2017-Apr-26 03:30N 54°56' E 018°47'3 6.8
2017-Apr-26 03:00N 54°55' E 018°53'4 7.1
2017-Apr-26 02:30N 54°54' E 018°59'4 7.0
2017-Apr-26 02:00N 54°52' E 019°04'4 6.9
2017-Apr-26 01:29N 54°51' E 019°10'4 7.0
2017-Apr-26 00:59N 54°50' E 019°16'4 7.3
2017-Apr-26 00:25N 54°48' E 019°22'3 7.3
2017-Apr-25 23:59N 54°47' E 019°27'  

Dump ship's entire track history